Time,TemperatureF,DewpointF,PressureIn,WindDirection,WindDirectionDegrees,WindSpeedMPH,WindSpeedGustMPH,Humidity,HourlyPrecipIn,Conditions,Clouds,dailyrainin,SoftwareType,DateUTC
2013-01-23 00:00:00,33.2,14.2,30.29,NNW,337,0.0,0.0,45,0.00,,,0.00,WeatherCatV1.11B39,2013-01-23 05:00:00,
2013-01-23 00:01:00,33.2,13.7,30.29,NNW,337,0.0,0.0,44,0.00,,,0.00,WeatherCatV1.11B39,2013-01-23 05:01:00,
2013-01-23 00:06:00,32.5,13.5,30.29,NNW,337,0.0,0.0,45,0.00,,,0.00,WeatherCatV1.11B39,2013-01-23 05:06:00,
2013-01-23 00:11:00,32.2,12.2,30.29,NNW,337,0.0,0.0,43,0.00,,,0.00,WeatherCatV1.11B39,2013-01-23 05:11:00,
2013-01-23 00:16:00,31.9,13.0,30.29,NNW,337,0.0,0.0,45,0.00,,,0.00,WeatherCatV1.11B39,2013-01-23 05:16:00,
2013-01-23 00:21:00,31.8,14.4,30.29,NNW,337,0.0,0.0,48,0.00,,,0.00,WeatherCatV1.11B39,2013-01-23 05:21:00,
2013-01-23 00:26:00,31.8,15.3,30.29,NNW,337,0.0,0.0,50,0.00,,,0.00,WeatherCatV1.11B39,2013-01-23 05:26:00,
2013-01-23 00:31:00,31.6,13.7,30.29,NNW,337,0.0,0.0,47,0.00,,,0.00,WeatherCatV1.11B39,2013-01-23 05:31:00,
2013-01-23 00:36:00,31.6,14.7,30.29,NNW,337,0.0,0.0,49,0.00,,,0.00,WeatherCatV1.11B39,2013-01-23 05:36:00,
2013-01-23 00:41:00,31.8,15.3,30.29,NNW,337,0.0,0.0,50,0.00,,,0.00,WeatherCatV1.11B39,2013-01-23 05:41:00,
2013-01-23 00:46:00,31.8,15.3,30.30,NNW,337,0.0,0.0,50,0.00,,,0.00,WeatherCatV1.11B39,2013-01-23 05:46:00,
2013-01-23 00:51:00,32.1,14.6,30.30,NNW,337,0.0,0.0,48,0.00,,,0.00,WeatherCatV1.11B39,2013-01-23 05:51:00,
2013-01-23 00:56:00,32.1,14.6,30.30,NNW,336,0.0,0.0,48,0.00,,,0.00,WeatherCatV1.11B39,2013-01-23 05:56:00,
2013-01-23 01:01:00,32.1,16.5,30.30,NNW,336,0.0,0.0,52,0.00,,,0.00,WeatherCatV1.11B39,2013-01-23 06:01:00,
2013-01-23 01:06:00,32.1,16.5,30.30,NNW,336,0.0,0.0,52,0.00,,,0.00,WeatherCatV1.11B39,2013-01-23 06:06:00,
2013-01-23 01:11:00,32.2,16.6,30.30,NNW,336,0.0,0.0,52,0.00,,,0.00,WeatherCatV1.11B39,2013-01-23 06:11:00,
2013-01-23 01:16:00,32.2,13.8,30.30,NNW,336,0.0,0.0,46,0.00,,,0.00,WeatherCatV1.11B39,2013-01-23 06:16:00,
2013-01-23 01:21:00,32.2,13.8,30.30,NNW,336,0.0,0.0,46,0.00,,,0.00,WeatherCatV1.11B39,2013-01-23 06:21:00,
2013-01-23 01:26:00,32.2,14.7,30.30,NNW,336,0.0,0.0,48,0.00,,,0.00,WeatherCatV1.11B39,2013-01-23 06:26:00,
2013-01-23 01:31:00,32.2,14.3,30.30,NNW,336,0.0,0.0,47,0.00,,,0.00,WeatherCatV1.11B39,2013-01-23 06:31:00,
2013-01-23 01:36:00,32.1,13.7,30.30,NNW,336,0.0,0.0,46,0.00,,,0.00,WeatherCatV1.11B39,2013-01-23 06:36:00,
2013-01-23 01:41:00,31.8,12.9,30.30,NNW,336,0.0,0.0,45,0.00,,,0.00,WeatherCatV1.11B39,2013-01-23 06:41:00,
2013-01-23 01:46:00,31.5,12.1,30.30,NNW,336,0.0,0.0,44,0.00,,,0.00,WeatherCatV1.11B39,2013-01-23 06:46:00,
2013-01-23 01:51:00,31.3,12.5,30.30,NNW,336,0.0,0.0,45,0.00,,,0.00,WeatherCatV1.11B39,2013-01-23 06:51:00,
2013-01-23 01:56:00,31.0,13.2,30.30,NNW,336,0.0,0.0,47,0.00,,,0.00,WeatherCatV1.11B39,2013-01-23 06:56:00,
2013-01-23 02:01:00,30.7,14.3,30.30,NNW,336,0.0,0.0,50,0.00,,,0.00,WeatherCatV1.11B39,2013-01-23 07:01:00,
2013-01-23 02:06:00,30.6,14.2,30.30,NNW,336,0.0,0.0,50,0.00,,,0.00,WeatherCatV1.11B39,2013-01-23 07:06:00,
2013-01-23 02:11:00,30.3,13.9,30.30,NNW,336,0.0,0.0,50,0.00,,,0.00,WeatherCatV1.11B39,2013-01-23 07:11:00,
2013-01-23 02:16:00,30.1,14.2,30.30,NNW,336,0.0,0.0,51,0.00,,,0.00,WeatherCatV1.11B39,2013-01-23 07:16:00,
2013-01-23 02:21:00,30.0,13.2,30.30,NNW,336,0.0,0.0,49,0.00,,,0.00,WeatherCatV1.11B39,2013-01-23 07:21:00,
2013-01-23 02:26:00,29.8,14.3,30.30,NNW,336,0.0,0.0,52,0.00,,,0.00,WeatherCatV1.11B39,2013-01-23 07:26:00,
2013-01-23 02:31:00,29.8,13.5,30.30,NNW,336,0.0,0.0,50,0.00,,,0.00,WeatherCatV1.11B39,2013-01-23 07:31:00,
2013-01-23 02:36:00,29.5,13.2,30.30,NNW,336,0.0,0.0,50,0.00,,,0.00,WeatherCatV1.11B39,2013-01-23 07:36:00,
2013-01-23 02:41:00,29.5,14.1,30.30,NNW,336,0.0,0.0,52,0.00,,,0.00,WeatherCatV1.11B39,2013-01-23 07:41:00,
2013-01-23 02:46:00,29.4,14.0,30.30,NNW,336,0.0,0.0,52,0.00,,,0.00,WeatherCatV1.11B39,2013-01-23 07:46:00,
2013-01-23 02:51:00,29.1,13.7,30.30,NNW,336,0.0,0.0,52,0.00,,,0.00,WeatherCatV1.11B39,2013-01-23 07:51:00,
2013-01-23 02:56:00,29.0,13.6,30.30,NNW,336,0.0,0.0,52,0.00,,,0.00,WeatherCatV1.11B39,2013-01-23 07:56:00,
2013-01-23 03:01:00,28.8,13.4,30.31,NNW,336,0.0,0.0,52,0.00,,,0.00,WeatherCatV1.11B39,2013-01-23 08:01:00,
2013-01-23 03:06:00,28.8,13.4,30.31,NNW,336,0.0,0.0,52,0.00,,,0.00,WeatherCatV1.11B39,2013-01-23 08:06:00,
2013-01-23 03:11:00,28.7,13.3,30.31,NNW,336,0.0,0.0,52,0.00,,,0.00,WeatherCatV1.11B39,2013-01-23 08:11:00,
2013-01-23 03:16:00,28.7,13.3,30.31,NNW,336,0.0,0.0,52,0.00,,,0.00,WeatherCatV1.11B39,2013-01-23 08:16:00,
2013-01-23 03:21:00,28.5,13.1,30.31,NNW,336,0.0,0.0,52,0.00,,,0.00,WeatherCatV1.11B39,2013-01-23 08:21:00,
2013-01-23 03:26:00,28.5,14.0,30.31,NNW,336,0.0,0.0,54,0.00,,,0.00,WeatherCatV1.11B39,2013-01-23 08:26:00,
2013-01-23 03:31:00,28.5,14.0,30.31,NNW,336,0.0,0.0,54,0.00,,,0.00,WeatherCatV1.11B39,2013-01-23 08:31:00,
2013-01-23 03:36:00,28.4,13.9,30.31,NNW,336,0.0,0.0,54,0.00,,,0.00,WeatherCatV1.11B39,2013-01-23 08:36:00,
2013-01-23 03:41:00,28.4,13.5,30.31,NNW,336,0.0,0.0,53,0.00,,,0.00,WeatherCatV1.11B39,2013-01-23 08:41:00,
2013-01-23 03:46:00,28.4,13.9,30.30,NNW,336,0.0,0.0,54,0.00,,,0.00,WeatherCatV1.11B39,2013-01-23 08:46:00,
2013-01-23 03:51:00,28.4,13.5,30.30,NNW,336,0.0,0.0,53,0.00,,,0.00,WeatherCatV1.11B39,2013-01-23 08:51:00,
2013-01-23 03:56:00,28.7,13.8,30.30,NNW,336,0.0,0.0,53,0.00,,,0.00,WeatherCatV1.11B39,2013-01-23 08:56:00,
2013-01-23 04:01:00,28.5,13.6,30.30,NNW,336,0.0,0.0,53,0.00,,,0.00,WeatherCatV1.11B39,2013-01-23 09:01:00,
2013-01-23 04:06:00,28.5,13.6,30.30,NNW,336,0.0,0.0,53,0.00,,,0.00,WeatherCatV1.11B39,2013-01-23 09:06:00,
2013-01-23 04:11:00,28.5,14.0,30.30,NNW,336,0.0,0.0,54,0.00,,,0.00,WeatherCatV1.11B39,2013-01-23 09:11:00,
2013-01-23 04:16:00,28.5,14.4,30.31,NNW,336,0.0,0.0,55,0.00,,,0.00,WeatherCatV1.11B39,2013-01-23 09:16:00,
2013-01-23 04:21:00,28.7,15.0,30.31,NNW,336,0.0,0.0,56,0.00,,,0.00,WeatherCatV1.11B39,2013-01-23 09:21:00,
2013-01-23 04:26:00,28.7,15.0,30.31,NNW,336,0.0,0.0,56,0.00,,,0.00,WeatherCatV1.11B39,2013-01-23 09:26:00,
2013-01-23 04:31:00,28.5,14.0,30.31,NNW,336,0.0,0.0,54,0.00,,,0.00,WeatherCatV1.11B39,2013-01-23 09:31:00,
2013-01-23 04:36:00,28.4,15.1,30.31,NNW,336,0.0,0.0,57,0.00,,,0.00,WeatherCatV1.11B39,2013-01-23 09:36:00,
2013-01-23 04:41:00,28.4,14.7,30.31,NNW,336,0.0,0.0,56,0.00,,,0.00,WeatherCatV1.11B39,2013-01-23 09:41:00,
2013-01-23 04:46:00,28.1,14.4,30.31,NNW,336,0.0,0.0,56,0.00,,,0.00,WeatherCatV1.11B39,2013-01-23 09:46:00,
2013-01-23 04:51:00,28.1,15.3,30.31,NNW,336,0.0,0.0,58,0.00,,,0.00,WeatherCatV1.11B39,2013-01-23 09:51:00,
2013-01-23 04:56:00,28.1,15.3,30.31,NNW,336,0.0,0.0,58,0.00,,,0.00,WeatherCatV1.11B39,2013-01-23 09:56:00,
2013-01-23 05:01:00,28.1,15.3,30.31,NNW,336,0.0,0.0,58,0.00,,,0.00,WeatherCatV1.11B39,2013-01-23 10:01:00,
2013-01-23 05:06:00,28.1,15.3,30.31,NNW,336,0.0,0.0,58,0.00,,,0.00,WeatherCatV1.11B39,2013-01-23 10:06:00,
2013-01-23 05:11:00,28.5,15.2,30.31,NNW,336,0.0,0.0,57,0.00,,,0.00,WeatherCatV1.11B39,2013-01-23 10:11:00,
2013-01-23 05:16:00,28.5,14.8,30.31,NNW,336,0.0,0.0,56,0.00,,,0.00,WeatherCatV1.11B39,2013-01-23 10:16:00,
2013-01-23 05:21:00,28.5,14.4,30.31,NNW,336,0.0,0.0,55,0.00,,,0.00,WeatherCatV1.11B39,2013-01-23 10:21:00,
2013-01-23 05:26:00,28.4,14.7,30.31,NNW,336,0.0,0.0,56,0.00,,,0.00,WeatherCatV1.11B39,2013-01-23 10:26:00,
2013-01-23 05:31:00,28.4,14.7,30.31,NNW,336,0.0,0.0,56,0.00,,,0.00,WeatherCatV1.11B39,2013-01-23 10:31:00,
2013-01-23 05:36:00,28.4,15.1,30.31,NNW,336,0.0,0.0,57,0.00,,,0.00,WeatherCatV1.11B39,2013-01-23 10:36:00,
2013-01-23 05:41:00,28.2,14.1,30.31,NNW,336,0.0,0.0,55,0.00,,,0.00,WeatherCatV1.11B39,2013-01-23 10:41:00,
2013-01-23 05:46:00,28.2,15.3,30.31,NNW,336,0.0,0.0,58,0.00,,,0.00,WeatherCatV1.11B39,2013-01-23 10:46:00,
2013-01-23 05:51:00,27.9,14.3,30.31,NNW,336,0.0,0.0,56,0.00,,,0.00,WeatherCatV1.11B39,2013-01-23 10:51:00,
2013-01-23 05:56:00,27.9,14.3,30.31,NNW,336,0.0,0.0,56,0.00,,,0.00,WeatherCatV1.11B39,2013-01-23 10:56:00,
2013-01-23 06:01:00,27.9,14.7,30.32,NNW,336,0.0,0.0,57,0.00,,,0.00,WeatherCatV1.11B39,2013-01-23 11:01:00,
2013-01-23 06:06:00,27.9,15.1,30.32,NNW,336,0.0,0.0,58,0.00,,,0.00,WeatherCatV1.11B39,2013-01-23 11:06:00,
2013-01-23 06:11:00,27.9,15.5,30.32,NNW,336,0.0,0.0,59,0.00,,,0.00,WeatherCatV1.11B39,2013-01-23 11:11:00,
2013-01-23 06:16:00,27.9,15.8,30.33,NNW,336,0.0,0.0,60,0.00,,,0.00,WeatherCatV1.11B39,2013-01-23 11:16:00,
2013-01-23 06:21:00,28.1,15.3,30.33,NNW,336,0.0,0.0,58,0.00,,,0.00,WeatherCatV1.11B39,2013-01-23 11:21:00,
2013-01-23 06:26:00,28.2,15.3,30.33,NNW,336,0.0,0.0,58,0.00,,,0.00,WeatherCatV1.11B39,2013-01-23 11:26:00,
2013-01-23 06:31:00,28.5,16.0,30.32,NNW,336,0.0,0.0,59,0.00,,,0.00,WeatherCatV1.11B39,2013-01-23 11:31:00,
2013-01-23 06:36:00,28.8,16.7,30.32,NNW,336,0.0,0.0,60,0.00,,,0.00,WeatherCatV1.11B39,2013-01-23 11:36:00,
2013-01-23 06:41:00,29.0,15.7,30.32,NNW,336,0.0,0.0,57,0.00,,,0.00,WeatherCatV1.11B39,2013-01-23 11:41:00,
2013-01-23 06:46:00,29.1,16.2,30.33,NNW,336,0.0,0.0,58,0.00,,,0.00,WeatherCatV1.11B39,2013-01-23 11:46:00,
2013-01-23 06:51:00,29.1,16.2,30.33,NNW,336,0.0,0.0,58,0.00,,,0.00,WeatherCatV1.11B39,2013-01-23 11:51:00,
2013-01-23 06:56:00,29.5,16.2,30.33,NNW,336,0.0,0.0,57,0.00,,,0.00,WeatherCatV1.11B39,2013-01-23 11:56:00,
2013-01-23 07:01:00,29.5,15.8,30.33,NNW,336,0.0,0.0,56,0.00,,,0.00,WeatherCatV1.11B39,2013-01-23 12:01:00,
2013-01-23 07:06:00,29.3,15.6,30.33,NNW,336,0.0,0.0,56,0.00,,,0.00,WeatherCatV1.11B39,2013-01-23 12:06:00,
2013-01-23 07:11:00,29.1,15.4,30.33,NNW,336,0.0,0.0,56,0.00,,,0.00,WeatherCatV1.11B39,2013-01-23 12:11:00,
2013-01-23 07:16:00,29.0,15.7,30.34,NNW,336,0.0,0.0,57,0.00,,,0.00,WeatherCatV1.11B39,2013-01-23 12:16:00,
2013-01-23 07:21:00,28.8,15.9,30.34,NNW,336,0.0,0.0,58,0.00,,,0.00,WeatherCatV1.11B39,2013-01-23 12:21:00,
2013-01-23 07:26:00,28.7,15.4,30.34,NNW,336,0.0,0.0,57,0.00,,,0.00,WeatherCatV1.11B39,2013-01-23 12:26:00,
2013-01-23 07:31:00,28.7,16.2,30.34,NNW,336,0.0,0.0,59,0.00,,,0.00,WeatherCatV1.11B39,2013-01-23 12:31:00,
2013-01-23 07:36:00,28.5,15.6,30.34,NNW,336,0.0,0.0,58,0.00,,,0.00,WeatherCatV1.11B39,2013-01-23 12:36:00,
2013-01-23 07:41:00,28.5,15.6,30.34,NNW,336,0.0,0.0,58,0.00,,,0.00,WeatherCatV1.11B39,2013-01-23 12:41:00,
2013-01-23 07:46:00,28.4,15.5,30.34,NNW,336,0.0,0.0,58,0.00,,,0.00,WeatherCatV1.11B39,2013-01-23 12:46:00,
2013-01-23 07:51:00,28.5,15.6,30.34,NNW,336,0.0,0.0,58,0.00,,,0.00,WeatherCatV1.11B39,2013-01-23 12:51:00,
2013-01-23 07:56:00,28.7,15.4,30.34,NNW,336,0.0,0.0,57,0.00,,,0.00,WeatherCatV1.11B39,2013-01-23 12:56:00,
2013-01-23 08:01:00,29.1,15.8,30.35,NNW,336,0.0,0.0,57,0.00,,,0.00,WeatherCatV1.11B39,2013-01-23 13:01:00,
2013-01-23 08:06:00,29.3,16.0,30.35,NNW,336,0.0,0.0,57,0.00,,,0.00,WeatherCatV1.11B39,2013-01-23 13:06:00,
2013-01-23 08:11:00,29.7,16.8,30.35,NNW,336,0.0,0.0,58,0.00,,,0.00,WeatherCatV1.11B39,2013-01-23 13:11:00,
2013-01-23 08:16:00,29.8,16.8,30.35,NNW,336,0.0,0.0,58,0.00,,,0.00,WeatherCatV1.11B39,2013-01-23 13:16:00,
2013-01-23 08:21:00,30.1,15.5,30.35,NNW,336,0.0,0.0,54,0.00,,,0.00,WeatherCatV1.11B39,2013-01-23 13:21:00,
2013-01-23 08:26:00,30.6,16.0,30.35,NNW,336,0.0,0.0,54,0.00,,,0.00,WeatherCatV1.11B39,2013-01-23 13:26:00,
2013-01-23 08:31:00,31.0,16.3,30.35,NNW,335,0.0,0.0,54,0.00,,,0.00,WeatherCatV1.11B39,2013-01-23 13:31:00,
2013-01-23 08:36:00,31.5,16.8,30.35,NNW,336,0.0,0.0,54,0.00,,,0.00,WeatherCatV1.11B39,2013-01-23 13:36:00,
2013-01-23 08:41:00,31.9,16.7,30.35,NNW,335,0.0,0.0,53,0.00,,,0.00,WeatherCatV1.11B39,2013-01-23 13:41:00,
2013-01-23 08:46:00,32.2,15.7,30.34,West,275,0.0,0.0,50,0.00,,,0.00,WeatherCatV1.11B39,2013-01-23 13:46:00,
2013-01-23 08:51:00,32.4,14.9,30.34,West,275,0.0,0.0,48,0.00,,,0.00,WeatherCatV1.11B39,2013-01-23 13:51:00,
2013-01-23 08:56:00,32.8,15.3,30.34,West,274,0.0,0.0,48,0.00,,,0.00,WeatherCatV1.11B39,2013-01-23 13:56:00,
2013-01-23 09:01:00,33.2,15.7,30.34,WNW,282,0.0,0.0,48,0.00,,,0.00,WeatherCatV1.11B39,2013-01-23 14:01:00,
2013-01-23 09:06:00,33.8,16.2,30.34,WNW,282,0.0,0.0,48,0.00,,,0.00,WeatherCatV1.11B39,2013-01-23 14:06:00,
2013-01-23 09:11:00,34.4,16.8,30.34,WNW,291,0.0,0.0,48,0.00,,,0.00,WeatherCatV1.11B39,2013-01-23 14:11:00,
2013-01-23 09:16:00,34.7,17.0,30.34,WNW,291,0.0,0.0,48,0.00,,,0.00,WeatherCatV1.11B39,2013-01-23 14:16:00,
2013-01-23 09:21:00,35.3,16.6,30.34,WNW,291,0.0,0.0,46,0.00,,,0.00,WeatherCatV1.11B39,2013-01-23 14:21:00,
2013-01-23 09:26:00,35.8,16.0,30.34,WNW,291,0.0,0.0,44,0.00,,,0.00,WeatherCatV1.11B39,2013-01-23 14:26:00,
2013-01-23 09:31:00,36.0,16.2,30.34,WNW,292,0.0,0.0,44,0.00,,,0.00,WeatherCatV1.11B39,2013-01-23 14:31:00,
2013-01-23 09:36:00,36.2,17.9,30.34,NW,312,0.0,0.0,47,0.00,,,0.00,WeatherCatV1.11B39,2013-01-23 14:36:00,
2013-01-23 09:41:00,35.9,16.1,30.34,WNW,292,0.0,0.0,44,0.00,,,0.00,WeatherCatV1.11B39,2013-01-23 14:41:00,
2013-01-23 09:46:00,36.2,15.9,30.35,WNW,292,0.0,0.0,43,0.00,,,0.00,WeatherCatV1.11B39,2013-01-23 14:46:00,
2013-01-23 09:51:00,36.3,16.0,30.35,WNW,291,0.0,0.0,43,0.00,,,0.00,WeatherCatV1.11B39,2013-01-23 14:51:00,
2013-01-23 09:56:00,36.5,15.1,30.35,West,281,0.0,2.0,41,0.00,,,0.00,WeatherCatV1.11B39,2013-01-23 14:56:00,
2013-01-23 10:01:00,37.2,16.8,30.35,West,281,0.0,0.0,43,0.00,,,0.00,WeatherCatV1.11B39,2013-01-23 15:01:00,
2013-01-23 10:06:00,37.8,17.9,30.35,NW,318,0.0,0.0,44,0.00,,,0.00,WeatherCatV1.11B39,2013-01-23 15:06:00,
2013-01-23 10:11:00,38.0,17.5,30.35,NW,316,0.0,0.0,43,0.00,,,0.00,WeatherCatV1.11B39,2013-01-23 15:11:00,
2013-01-23 10:16:00,38.5,17.4,30.35,WNW,298,0.0,0.0,42,0.00,,,0.00,WeatherCatV1.11B39,2013-01-23 15:16:00,
2013-01-23 10:21:00,38.6,18.1,30.35,WNW,288,0.0,0.0,43,0.00,,,0.00,WeatherCatV1.11B39,2013-01-23 15:21:00,
2013-01-23 10:26:00,38.8,17.7,30.35,WNW,298,0.0,0.0,42,0.00,,,0.00,WeatherCatV1.11B39,2013-01-23 15:26:00,
2013-01-23 10:31:00,38.8,18.2,30.36,NNW,328,0.0,0.0,43,0.00,,,0.00,WeatherCatV1.11B39,2013-01-23 15:31:00,
2013-01-23 10:36:00,39.1,18.5,30.36,NNW,339,1.0,7.0,43,0.00,,,0.00,WeatherCatV1.11B39,2013-01-23 15:36:00,
2013-01-23 10:41:00,39.3,18.7,30.36,NNW,340,1.0,6.0,43,0.00,,,0.00,WeatherCatV1.11B39,2013-01-23 15:41:00,
2013-01-23 10:46:00,39.6,19.0,30.36,North,359,0.0,1.0,43,0.00,,,0.00,WeatherCatV1.11B39,2013-01-23 15:46:00,
2013-01-23 10:51:00,40.1,20.0,30.36,North,0,0.0,0.0,44,0.00,,,0.00,WeatherCatV1.11B39,2013-01-23 15:51:00,
2013-01-23 10:56:00,40.1,19.4,30.36,North,354,0.0,1.0,43,0.00,,,0.00,WeatherCatV1.11B39,2013-01-23 15:56:00,
2013-01-23 11:01:00,40.8,18.4,30.35,NW,326,0.0,3.0,40,0.00,,,0.00,WeatherCatV1.11B39,2013-01-23 16:01:00,
2013-01-23 11:06:00,41.1,18.6,30.35,North,0,0.0,0.0,40,0.00,,,0.00,WeatherCatV1.11B39,2013-01-23 16:06:00,
2013-01-23 11:11:00,41.5,19.6,30.35,WNW,288,0.0,1.0,41,0.00,,,0.00,WeatherCatV1.11B39,2013-01-23 16:11:00,
2013-01-23 11:16:00,42.3,20.3,30.36,North,8,0.0,1.0,41,0.00,,,0.00,WeatherCatV1.11B39,2013-01-23 16:16:00,
2013-01-23 11:21:00,42.8,20.7,30.36,NNW,342,0.0,3.0,41,0.00,,,0.00,WeatherCatV1.11B39,2013-01-23 16:21:00,
2013-01-23 11:26:00,42.8,21.9,30.36,NNW,332,0.0,4.0,43,0.00,,,0.00,WeatherCatV1.11B39,2013-01-23 16:26:00,
2013-01-23 11:31:00,43.3,21.2,30.35,WSW,247,0.0,0.0,41,0.00,,,0.00,WeatherCatV1.11B39,2013-01-23 16:31:00,
2013-01-23 11:36:00,44.1,21.9,30.35,NNW,340,0.0,0.0,41,0.00,,,0.00,WeatherCatV1.11B39,2013-01-23 16:36:00,
2013-01-23 11:41:00,44.1,22.5,30.35,SW,227,0.0,3.0,42,0.00,,,0.00,WeatherCatV1.11B39,2013-01-23 16:41:00,
2013-01-23 11:46:00,43.8,22.2,30.33,NNW,332,0.0,5.0,42,0.00,,,0.00,WeatherCatV1.11B39,2013-01-23 16:46:00,
2013-01-23 11:51:00,43.8,21.1,30.33,WSW,251,0.0,6.0,40,0.00,,,0.00,WeatherCatV1.11B39,2013-01-23 16:51:00,
2013-01-23 11:56:00,44.1,21.9,30.33,SSW,213,0.0,2.0,41,0.00,,,0.00,WeatherCatV1.11B39,2013-01-23 16:56:00,
2013-01-23 12:01:00,44.1,20.7,30.33,WNW,302,0.0,0.0,39,0.00,,,0.00,WeatherCatV1.11B39,2013-01-23 17:01:00,
2013-01-23 12:06:00,44.6,21.8,30.33,SW,216,0.0,1.0,40,0.00,,,0.00,WeatherCatV1.11B39,2013-01-23 17:06:00,
2013-01-23 12:11:00,45.2,21.7,30.33,NW,319,0.0,1.0,39,0.00,,,0.00,WeatherCatV1.11B39,2013-01-23 17:11:00,
2013-01-23 12:16:00,45.2,21.7,30.32,WSW,254,0.0,1.0,39,0.00,,,0.00,WeatherCatV1.11B39,2013-01-23 17:16:00,
2013-01-23 12:21:00,45.5,22.6,30.32,WNW,294,0.0,0.0,40,0.00,,,0.00,WeatherCatV1.11B39,2013-01-23 17:21:00,
2013-01-23 12:26:00,45.7,21.6,30.32,WNW,298,0.0,1.0,38,0.00,,,0.00,WeatherCatV1.11B39,2013-01-23 17:26:00,
2013-01-23 12:31:00,45.7,22.8,30.30,SE,141,0.0,2.0,40,0.00,,,0.00,WeatherCatV1.11B39,2013-01-23 17:31:00,
2013-01-23 12:36:00,45.7,21.6,30.30,NNW,347,0.0,0.0,38,0.00,,,0.00,WeatherCatV1.11B39,2013-01-23 17:36:00,
2013-01-23 12:41:00,45.7,23.4,30.30,SSE,161,1.0,3.0,41,0.00,,,0.00,WeatherCatV1.11B39,2013-01-23 17:41:00,
2013-01-23 12:46:00,45.5,20.8,30.30,NW,308,0.0,12.0,37,0.00,,,0.00,WeatherCatV1.11B39,2013-01-23 17:46:00,
2013-01-23 12:51:00,45.5,21.4,30.30,South,178,0.0,0.0,38,0.00,,,0.00,WeatherCatV1.11B39,2013-01-23 17:51:00,
2013-01-23 12:56:00,45.8,22.3,30.30,SE,140,0.0,0.0,39,0.00,,,0.00,WeatherCatV1.11B39,2013-01-23 17:56:00,
2013-01-23 13:01:00,45.8,23.5,30.28,WSW,253,0.0,3.0,41,0.00,,,0.00,WeatherCatV1.11B39,2013-01-23 18:01:00,
2013-01-23 13:06:00,46.1,23.1,30.28,SE,134,0.0,7.0,40,0.00,,,0.00,WeatherCatV1.11B39,2013-01-23 18:06:00,
2013-01-23 13:11:00,46.1,24.3,30.28,WNW,298,1.0,6.0,42,0.00,,,0.00,WeatherCatV1.11B39,2013-01-23 18:11:00,
2013-01-23 13:16:00,46.1,26.0,30.27,North,0,0.0,0.0,45,0.00,,,0.00,WeatherCatV1.11B39,2013-01-23 18:16:00,
2013-01-23 13:21:00,46.2,25.5,30.27,NW,319,0.0,9.0,44,0.00,,,0.00,WeatherCatV1.11B39,2013-01-23 18:21:00,
2013-01-23 13:26:00,46.2,26.6,30.27,North,350,0.0,3.0,46,0.00,,,0.00,WeatherCatV1.11B39,2013-01-23 18:26:00,
2013-01-23 13:31:00,46.4,26.8,30.26,NE,44,0.0,0.0,46,0.00,,,0.00,WeatherCatV1.11B39,2013-01-23 18:31:00,
2013-01-23 13:36:00,46.7,27.0,30.26,NNW,328,0.0,5.0,46,0.00,,,0.00,WeatherCatV1.11B39,2013-01-23 18:36:00,
2013-01-23 13:41:00,46.8,26.6,30.26,ESE,119,0.0,1.0,45,0.00,,,0.00,WeatherCatV1.11B39,2013-01-23 18:41:00,
2013-01-23 13:46:00,47.0,27.3,30.25,SSW,209,2.0,2.0,46,0.00,,,0.00,WeatherCatV1.11B39,2013-01-23 18:46:00,
2013-01-23 13:51:00,47.0,27.3,30.25,WNW,287,0.0,6.0,46,0.00,,,0.00,WeatherCatV1.11B39,2013-01-23 18:51:00,
2013-01-23 13:56:00,46.7,27.0,30.25,NNW,340,1.0,7.0,46,0.00,,,0.00,WeatherCatV1.11B39,2013-01-23 18:56:00,
2013-01-23 14:01:00,46.7,27.0,30.25,WNW,287,2.0,5.0,46,0.00,,,0.00,WeatherCatV1.11B39,2013-01-23 19:01:00,
2013-01-23 14:06:00,46.8,27.1,30.25,NE,44,0.0,0.0,46,0.00,,,0.00,WeatherCatV1.11B39,2013-01-23 19:06:00,
2013-01-23 14:11:00,46.8,27.1,30.25,NW,322,2.0,2.0,46,0.00,,,0.00,WeatherCatV1.11B39,2013-01-23 19:11:00,
2013-01-23 14:16:00,46.8,27.1,30.25,NW,304,1.0,1.0,46,0.00,,,0.00,WeatherCatV1.11B39,2013-01-23 19:16:00,
2013-01-23 14:21:00,46.8,-99.9,30.25,North,0,3.0,4.0,-999,0.00,,,0.00,WeatherCatV1.11B39,2013-01-23 19:21:00,
2013-01-23 14:26:00,46.8,-99.9,30.25,NW,306,5.0,5.0,-999,0.00,,,0.00,WeatherCatV1.11B39,2013-01-23 19:26:00,
2013-01-23 14:31:00,46.8,-99.9,30.24,NNW,337,2.0,2.0,-999,0.00,,,0.00,WeatherCatV1.11B39,2013-01-23 19:31:00,
2013-01-23 14:36:00,47.0,-99.9,30.24,North,0,0.0,1.0,-999,0.00,,,0.00,WeatherCatV1.11B39,2013-01-23 19:36:00,
2013-01-23 14:41:00,47.0,26.8,30.24,West,261,0.0,1.0,45,0.00,,,0.00,WeatherCatV1.11B39,2013-01-23 19:41:00,
2013-01-23 14:46:00,47.1,26.9,30.24,NW,306,1.0,3.0,45,0.00,,,0.00,WeatherCatV1.11B39,2013-01-23 19:46:00,
2013-01-23 14:51:00,47.1,26.9,30.24,NW,305,0.0,5.0,45,0.00,,,0.00,WeatherCatV1.11B39,2013-01-23 19:51:00,
2013-01-23 14:56:00,47.3,27.6,30.24,NNE,18,1.0,5.0,46,0.00,,,0.00,WeatherCatV1.11B39,2013-01-23 19:56:00,
2013-01-23 15:01:00,47.3,26.5,30.23,North,7,0.0,6.0,44,0.00,,,0.00,WeatherCatV1.11B39,2013-01-23 20:01:00,
2013-01-23 15:06:00,47.3,26.5,30.23,WNW,302,0.0,12.0,44,0.00,,,0.00,WeatherCatV1.11B39,2013-01-23 20:06:00,
2013-01-23 15:11:00,47.3,26.5,30.23,WNW,282,0.0,6.0,44,0.00,,,0.00,WeatherCatV1.11B39,2013-01-23 20:11:00,
2013-01-23 15:16:00,47.3,27.0,30.23,NE,42,0.0,0.0,45,0.00,,,0.00,WeatherCatV1.11B39,2013-01-23 20:16:00,
2013-01-23 15:21:00,47.6,26.2,30.23,NW,304,0.0,0.0,43,0.00,,,0.00,WeatherCatV1.11B39,2013-01-23 20:21:00,
2013-01-23 15:26:00,47.7,26.3,30.23,WNW,295,0.0,0.0,43,0.00,,,0.00,WeatherCatV1.11B39,2013-01-23 20:26:00,
2013-01-23 15:31:00,47.9,26.5,30.23,North,6,0.0,2.0,43,0.00,,,0.00,WeatherCatV1.11B39,2013-01-23 20:31:00,
2013-01-23 15:36:00,47.6,26.2,30.23,NE,45,0.0,3.0,43,0.00,,,0.00,WeatherCatV1.11B39,2013-01-23 20:36:00,
2013-01-23 15:41:00,47.4,26.0,30.23,ESE,106,0.0,0.0,43,0.00,,,0.00,WeatherCatV1.11B39,2013-01-23 20:41:00,
2013-01-23 15:46:00,47.4,26.0,30.23,NW,305,0.0,0.0,43,0.00,,,0.00,WeatherCatV1.11B39,2013-01-23 20:46:00,
2013-01-23 15:51:00,47.4,26.0,30.23,North,11,0.0,0.0,43,0.00,,,0.00,WeatherCatV1.11B39,2013-01-23 20:51:00,
2013-01-23 15:56:00,47.4,26.0,30.23,NW,320,0.0,0.0,43,0.00,,,0.00,WeatherCatV1.11B39,2013-01-23 20:56:00,
2013-01-23 16:01:00,47.4,26.0,30.22,North,3,2.0,8.0,43,0.00,,,0.00,WeatherCatV1.11B39,2013-01-23 21:01:00,
2013-01-23 16:06:00,47.4,26.0,30.22,SSE,161,2.0,2.0,43,0.00,,,0.00,WeatherCatV1.11B39,2013-01-23 21:06:00,
2013-01-23 16:11:00,47.6,26.2,30.22,ENE,72,0.0,1.0,43,0.00,,,0.00,WeatherCatV1.11B39,2013-01-23 21:11:00,
2013-01-23 16:16:00,47.6,26.2,30.22,SE,133,0.0,0.0,43,0.00,,,0.00,WeatherCatV1.11B39,2013-01-23 21:16:00,
2013-01-23 16:21:00,47.7,26.3,30.22,NW,319,0.0,0.0,43,0.00,,,0.00,WeatherCatV1.11B39,2013-01-23 21:21:00,
2013-01-23 16:27:00,47.7,26.3,30.22,North,3,0.0,1.0,43,0.00,,,0.00,WeatherCatV1.11B39,2013-01-23 21:27:00,
2013-01-23 16:32:00,47.7,25.7,30.21,North,359,0.0,0.0,42,0.00,,,0.00,WeatherCatV1.11B39,2013-01-23 21:32:00,
2013-01-23 16:37:00,47.7,26.3,30.21,WNW,288,0.0,0.0,43,0.00,,,0.00,WeatherCatV1.11B39,2013-01-23 21:37:00,
2013-01-23 16:42:00,47.9,25.9,30.21,WNW,292,0.0,0.0,42,0.00,,,0.00,WeatherCatV1.11B39,2013-01-23 21:42:00,
2013-01-23 16:47:00,47.7,25.7,30.20,SSW,212,0.0,3.0,42,0.00,,,0.00,WeatherCatV1.11B39,2013-01-23 21:47:00,
2013-01-23 16:52:00,47.7,25.7,30.20,WNW,302,0.0,1.0,42,0.00,,,0.00,WeatherCatV1.11B39,2013-01-23 21:52:00,
2013-01-23 16:57:00,47.7,25.7,30.20,SSW,193,0.0,0.0,42,0.00,,,0.00,WeatherCatV1.11B39,2013-01-23 21:57:00,
2013-01-23 17:02:00,47.7,26.3,30.21,NNW,347,5.0,5.0,43,0.00,,,0.00,WeatherCatV1.11B39,2013-01-23 22:02:00,
2013-01-23 17:07:00,47.7,26.3,30.21,NNW,336,0.0,0.0,43,0.00,,,0.00,WeatherCatV1.11B39,2013-01-23 22:07:00,
2013-01-23 17:12:00,47.6,25.7,30.21,North,4,0.0,1.0,42,0.00,,,0.00,WeatherCatV1.11B39,2013-01-23 22:12:00,
2013-01-23 17:17:00,47.6,26.2,30.20,WSW,240,0.0,0.0,43,0.00,,,0.00,WeatherCatV1.11B39,2013-01-23 22:17:00,
2013-01-23 17:22:00,47.4,26.0,30.20,West,278,0.0,1.0,43,0.00,,,0.00,WeatherCatV1.11B39,2013-01-23 22:22:00,
2013-01-23 17:26:00,47.3,25.9,30.20,West,278,0.0,0.0,43,0.00,,,0.00,WeatherCatV1.11B39,2013-01-23 22:26:00,
2013-01-23 17:31:00,47.3,27.6,30.21,WSW,250,0.0,0.0,46,0.00,,,0.00,WeatherCatV1.11B39,2013-01-23 22:31:00,
2013-01-23 17:36:00,47.0,26.2,30.21,West,263,0.0,0.0,44,0.00,,,0.00,WeatherCatV1.11B39,2013-01-23 22:36:00,
2013-01-23 17:41:00,46.7,26.5,30.21,WSW,254,0.0,0.0,45,0.00,,,0.00,WeatherCatV1.11B39,2013-01-23 22:41:00,
2013-01-23 17:46:00,46.4,26.2,30.21,WSW,254,0.0,0.0,45,0.00,,,0.00,WeatherCatV1.11B39,2013-01-23 22:46:00,
2013-01-23 17:52:00,46.0,25.9,30.21,WSW,256,0.0,0.0,45,0.00,,,0.00,WeatherCatV1.11B39,2013-01-23 22:52:00,
2013-01-23 17:56:00,45.5,25.4,30.21,West,265,0.0,0.0,45,0.00,,,0.00,WeatherCatV1.11B39,2013-01-23 22:56:00,
2013-01-23 18:01:00,45.2,25.1,30.21,West,265,0.0,0.0,45,0.00,,,0.00,WeatherCatV1.11B39,2013-01-23 23:01:00,
2013-01-23 18:06:00,44.6,24.6,30.21,West,265,0.0,0.0,45,0.00,,,0.00,WeatherCatV1.11B39,2013-01-23 23:06:00,
2013-01-23 18:11:00,44.2,24.2,30.21,West,265,0.0,0.0,45,0.00,,,0.00,WeatherCatV1.11B39,2013-01-23 23:11:00,
2013-01-23 18:17:00,43.8,23.9,30.21,West,265,0.0,0.0,45,0.00,,,0.00,WeatherCatV1.11B39,2013-01-23 23:17:00,
2013-01-23 18:22:00,43.3,27.3,30.21,West,265,0.0,0.0,53,0.00,,,0.00,WeatherCatV1.11B39,2013-01-23 23:22:00,
2013-01-23 18:26:00,42.9,27.4,30.21,West,265,0.0,0.0,54,0.00,,,0.00,WeatherCatV1.11B39,2013-01-23 23:26:00,
2013-01-23 18:31:00,42.9,27.9,30.21,West,265,0.0,0.0,55,0.00,,,0.00,WeatherCatV1.11B39,2013-01-23 23:31:00,
2013-01-23 18:37:00,42.9,27.9,30.21,West,265,0.0,0.0,55,0.00,,,0.00,WeatherCatV1.11B39,2013-01-23 23:37:00,
2013-01-23 18:42:00,42.9,28.3,30.21,West,265,0.0,0.0,56,0.00,,,0.00,WeatherCatV1.11B39,2013-01-23 23:42:00,
2013-01-23 18:47:00,42.1,28.0,30.21,West,265,0.0,0.0,57,0.00,,,0.00,WeatherCatV1.11B39,2013-01-23 23:47:00,
2013-01-23 18:52:00,41.9,28.2,30.21,West,265,0.0,0.0,58,0.00,,,0.00,WeatherCatV1.11B39,2013-01-23 23:52:00,
2013-01-23 18:57:00,41.9,28.6,30.21,West,265,0.0,0.0,59,0.00,,,0.00,WeatherCatV1.11B39,2013-01-23 23:57:00,
2013-01-23 19:02:00,41.6,28.8,30.20,West,265,0.0,0.0,60,0.00,,,0.00,WeatherCatV1.11B39,2013-01-24 00:02:00,
2013-01-23 19:07:00,41.3,28.5,30.20,West,265,0.0,0.0,60,0.00,,,0.00,WeatherCatV1.11B39,2013-01-24 00:07:00,
2013-01-23 19:12:00,41.2,28.8,30.20,West,265,0.0,0.0,61,0.00,,,0.00,WeatherCatV1.11B39,2013-01-24 00:12:00,
2013-01-23 19:17:00,41.1,29.1,30.19,West,265,0.0,0.0,62,0.00,,,0.00,WeatherCatV1.11B39,2013-01-24 00:17:00,
2013-01-23 19:22:00,40.9,29.3,30.19,West,265,0.0,0.0,63,0.00,,,0.00,WeatherCatV1.11B39,2013-01-24 00:22:00,
2013-01-23 19:27:00,40.9,29.3,30.19,West,265,0.0,0.0,63,0.00,,,0.00,WeatherCatV1.11B39,2013-01-24 00:27:00,
2013-01-23 19:32:00,40.6,29.0,30.19,West,265,0.0,0.0,63,0.00,,,0.00,WeatherCatV1.11B39,2013-01-24 00:32:00,
2013-01-23 19:37:00,40.5,29.3,30.19,West,265,0.0,0.0,64,0.00,,,0.00,WeatherCatV1.11B39,2013-01-24 00:37:00,
2013-01-23 19:42:00,40.3,28.7,30.19,West,265,0.0,0.0,63,0.00,,,0.00,WeatherCatV1.11B39,2013-01-24 00:42:00,
2013-01-23 19:47:00,40.1,28.9,30.20,West,265,0.0,0.0,64,0.00,,,0.00,WeatherCatV1.11B39,2013-01-24 00:47:00,
2013-01-23 19:52:00,39.5,28.7,30.20,West,265,0.0,0.0,65,0.00,,,0.00,WeatherCatV1.11B39,2013-01-24 00:52:00,
2013-01-23 19:57:00,39.2,28.1,30.20,West,265,0.0,0.0,64,0.00,,,0.00,WeatherCatV1.11B39,2013-01-24 00:57:00,
2013-01-23 20:02:00,39.5,27.6,30.19,West,265,0.0,0.0,62,0.00,,,0.00,WeatherCatV1.11B39,2013-01-24 01:02:00,
2013-01-23 20:07:00,39.8,27.9,30.19,West,265,0.0,0.0,62,0.00,,,0.00,WeatherCatV1.11B39,2013-01-24 01:07:00,
2013-01-23 20:12:00,39.5,28.3,30.19,West,265,0.0,0.0,64,0.00,,,0.00,WeatherCatV1.11B39,2013-01-24 01:12:00,
2013-01-23 20:17:00,39.2,28.1,30.18,West,265,0.0,0.0,64,0.00,,,0.00,WeatherCatV1.11B39,2013-01-24 01:17:00,
2013-01-23 20:22:00,38.9,27.8,30.18,West,265,0.0,0.0,64,0.00,,,0.00,WeatherCatV1.11B39,2013-01-24 01:22:00,
2013-01-23 20:27:00,38.5,28.1,30.18,West,265,0.0,0.0,66,0.00,,,0.00,WeatherCatV1.11B39,2013-01-24 01:27:00,
2013-01-23 20:32:00,38.2,27.9,30.19,West,265,0.0,0.0,66,0.00,,,0.00,WeatherCatV1.11B39,2013-01-24 01:32:00,
2013-01-23 20:37:00,38.2,27.9,30.19,West,265,0.0,0.0,66,0.00,,,0.00,WeatherCatV1.11B39,2013-01-24 01:37:00,
2013-01-23 20:42:00,38.0,27.7,30.19,West,265,0.0,0.0,66,0.00,,,0.00,WeatherCatV1.11B39,2013-01-24 01:42:00,
2013-01-23 20:47:00,38.0,27.7,30.20,West,265,0.0,0.0,66,0.00,,,0.00,WeatherCatV1.11B39,2013-01-24 01:47:00,
2013-01-23 20:52:00,37.8,27.5,30.20,West,265,0.0,0.0,66,0.00,,,0.00,WeatherCatV1.11B39,2013-01-24 01:52:00,
2013-01-23 20:57:00,37.6,26.9,30.20,West,265,0.0,0.0,65,0.00,,,0.00,WeatherCatV1.11B39,2013-01-24 01:57:00,
2013-01-23 21:02:00,37.6,27.3,30.19,West,265,0.0,0.0,66,0.00,,,0.00,WeatherCatV1.11B39,2013-01-24 02:02:00,
2013-01-23 21:07:00,37.6,27.6,30.19,West,265,0.0,0.0,67,0.00,,,0.00,WeatherCatV1.11B39,2013-01-24 02:07:00,
2013-01-23 21:12:00,37.6,28.4,30.19,West,265,0.0,0.0,69,0.00,,,0.00,WeatherCatV1.11B39,2013-01-24 02:12:00,
2013-01-23 21:17:00,37.5,28.3,30.18,West,265,0.0,0.0,69,0.00,,,0.00,WeatherCatV1.11B39,2013-01-24 02:17:00,
2013-01-23 21:22:00,37.5,29.0,30.18,West,265,0.0,0.0,71,0.00,,,0.00,WeatherCatV1.11B39,2013-01-24 02:22:00,
2013-01-23 21:27:00,37.5,29.0,30.18,West,265,0.0,0.0,71,0.00,,,0.00,WeatherCatV1.11B39,2013-01-24 02:27:00,
2013-01-23 21:32:00,37.3,29.5,30.18,West,265,0.0,0.0,73,0.00,,,0.00,WeatherCatV1.11B39,2013-01-24 02:32:00,
2013-01-23 21:37:00,37.0,29.2,30.18,West,265,0.0,0.0,73,0.00,,,0.00,WeatherCatV1.11B39,2013-01-24 02:37:00,
2013-01-23 21:42:00,37.0,29.8,30.18,West,265,0.0,0.0,75,0.00,,,0.00,WeatherCatV1.11B39,2013-01-24 02:42:00,
2013-01-23 21:47:00,36.9,30.1,30.17,West,265,0.0,0.0,76,0.00,,,0.00,WeatherCatV1.11B39,2013-01-24 02:47:00,
2013-01-23 21:52:00,36.8,30.3,30.17,West,265,0.0,0.0,77,0.00,,,0.00,WeatherCatV1.11B39,2013-01-24 02:52:00,
2013-01-23 21:57:00,36.3,29.8,30.17,West,265,0.0,0.0,77,0.00,,,0.00,WeatherCatV1.11B39,2013-01-24 02:57:00,
2013-01-23 22:02:00,36.2,29.7,30.17,West,265,0.0,0.0,77,0.00,,,0.00,WeatherCatV1.11B39,2013-01-24 03:02:00,
2013-01-23 22:07:00,36.2,29.7,30.17,West,265,0.0,0.0,77,0.00,,,0.00,WeatherCatV1.11B39,2013-01-24 03:07:00,
2013-01-23 22:12:00,36.0,29.5,30.17,West,265,0.0,0.0,77,0.00,,,0.00,WeatherCatV1.11B39,2013-01-24 03:12:00,
2013-01-23 22:17:00,36.0,29.5,30.17,West,265,0.0,0.0,77,0.00,,,0.00,WeatherCatV1.11B39,2013-01-24 03:17:00,
2013-01-23 22:22:00,35.9,29.4,30.17,West,265,0.0,0.0,77,0.00,,,0.00,WeatherCatV1.11B39,2013-01-24 03:22:00,
2013-01-23 22:27:00,35.9,30.0,30.17,West,265,0.0,0.0,79,0.00,,,0.00,WeatherCatV1.11B39,2013-01-24 03:27:00,
2013-01-23 22:32:00,35.9,30.0,30.17,West,265,0.0,0.0,79,0.00,,,0.00,WeatherCatV1.11B39,2013-01-24 03:32:00,
2013-01-23 22:37:00,35.9,30.3,30.17,West,265,0.0,0.0,80,0.00,,,0.00,WeatherCatV1.11B39,2013-01-24 03:37:00,
2013-01-23 22:42:00,36.2,30.6,30.17,West,265,0.0,0.0,80,0.00,,,0.00,WeatherCatV1.11B39,2013-01-24 03:42:00,
2013-01-23 22:47:00,36.8,31.2,30.17,West,265,0.0,0.0,80,0.00,,,0.00,WeatherCatV1.11B39,2013-01-24 03:47:00,
2013-01-23 22:52:00,37.6,31.7,30.17,North,353,0.0,0.0,79,0.00,,,0.00,WeatherCatV1.11B39,2013-01-24 03:52:00,
2013-01-23 22:57:00,38.3,32.1,30.17,North,353,0.0,0.0,78,0.00,,,0.00,WeatherCatV1.11B39,2013-01-24 03:57:00,
2013-01-23 23:02:00,39.2,32.6,30.16,North,1,1.0,3.0,77,0.00,,,0.00,WeatherCatV1.11B39,2013-01-24 04:02:00,
2013-01-23 23:07:00,39.8,32.5,30.16,North,1,0.0,0.0,75,0.00,,,0.00,WeatherCatV1.11B39,2013-01-24 04:07:00,
2013-01-23 23:12:00,40.3,32.7,30.16,North,1,0.0,0.0,74,0.00,,,0.00,WeatherCatV1.11B39,2013-01-24 04:12:00,
2013-01-23 23:17:00,41.1,33.1,30.15,NE,52,0.0,0.0,73,0.00,,,0.00,WeatherCatV1.11B39,2013-01-24 04:17:00,
2013-01-23 23:22:00,41.1,32.8,30.15,WNW,296,3.0,3.0,72,0.00,,,0.00,WeatherCatV1.11B39,2013-01-24 04:22:00,
2013-01-23 23:27:00,41.1,32.4,30.15,WNW,296,0.0,0.0,71,0.00,,,0.00,WeatherCatV1.11B39,2013-01-24 04:27:00,
2013-01-23 23:32:00,41.1,32.1,30.15,WNW,296,0.0,0.0,70,0.00,,,0.00,WeatherCatV1.11B39,2013-01-24 04:32:00,
2013-01-23 23:37:00,43.2,33.7,30.15,WNW,296,0.0,0.0,69,0.00,,,0.00,WeatherCatV1.11B39,2013-01-24 04:37:00,
2013-01-23 23:42:00,43.5,34.0,30.15,WNW,296,0.0,0.0,69,0.00,,,0.00,WeatherCatV1.11B39,2013-01-24 04:42:00,
2013-01-23 23:47:00,43.5,33.7,30.14,WNW,296,0.0,0.0,68,0.00,,,0.00,WeatherCatV1.11B39,2013-01-24 04:47:00,
2013-01-23 23:52:00,43.8,33.9,30.14,WNW,296,0.0,0.0,68,0.00,,,0.00,WeatherCatV1.11B39,2013-01-24 04:52:00,
2013-01-23 23:57:00,43.9,34.0,30.14,WNW,296,0.0,0.0,68,0.00,,,0.00,WeatherCatV1.11B39,2013-01-24 04:57:00,